Fayston, Vermont
Current Conditions -  °F | °C
As of 5:17 PM on Tuesday 21 Oct 2014 (Local Time) from KMPV Reporting Station
Haze Haze  
Wind Chill: 45°   Ceiling: 500
Heat Index: 45°   Visibility: 6mi
Dew Point: 45°   Wind: 3mph
Humidity: 100%   Direction: 340°NNW
Pressure: 30.04"   Gusts: NA
Location:  44.1924°N, 72.8443°W
Report Text: KMPV 212117Z AUTO 34003KT 6SM BR BKN005 OVC015 07/07 A3004 RMK AO2 RAE07 CIG 002V009 P0000 T00720072
Loading
Personal Weather Stations






























Interactive Weather Map
Tropical Storm Tracking
New forecast layout! Learn more

10-Day Weather Forecast

Advertisements
Track Severe Weather on mobile